createdAt,value
2022-10-19T00:00:28.636Z,102284.82
2022-10-19T00:00:59.081Z,102283.81
2022-10-19T00:01:29.489Z,102285.67
2022-10-19T00:02:00.073Z,102286.17
2022-10-19T00:02:30.564Z,102282.12
2022-10-19T00:03:00.962Z,102280.12
2022-10-19T00:03:31.401Z,102284.66
2022-10-19T00:04:04.841Z,102280.63
2022-10-19T00:04:37.137Z,102283.50
2022-10-19T00:05:07.556Z,102281.13
2022-10-19T00:05:37.996Z,102287.19
2022-10-19T00:06:08.428Z,102283.66
2022-10-19T00:06:38.848Z,102287.03
2022-10-19T00:07:09.293Z,102285.34
2022-10-19T00:07:39.715Z,102286.19
2022-10-19T00:08:10.157Z,102287.69
2022-10-19T00:08:40.555Z,102286.17
2022-10-19T00:09:10.974Z,102286.52
2022-10-19T00:09:41.396Z,102287.36
2022-10-19T00:10:11.828Z,102290.71
2022-10-19T00:10:42.256Z,102290.20
2022-10-19T00:11:12.677Z,102288.38
2022-10-19T00:11:43.105Z,102289.89
2022-10-19T00:12:13.523Z,102288.52
2022-10-19T00:12:44.008Z,102283.48
2022-10-19T00:13:14.411Z,102284.16
2022-10-19T00:13:44.842Z,102281.47
2022-10-19T00:14:15.274Z,102282.12
2022-10-19T00:14:45.690Z,102281.30
2022-10-19T00:15:16.116Z,102284.67
2022-10-19T00:15:46.563Z,102282.46
2022-10-19T00:16:16.981Z,102284.34
2022-10-19T00:16:47.424Z,102286.53
2022-10-19T00:17:17.842Z,102283.82
2022-10-19T00:17:48.270Z,102284.00
2022-10-19T00:18:18.692Z,102282.32
2022-10-19T00:18:49.137Z,102284.48
2022-10-19T00:19:19.540Z,102281.12
2022-10-19T00:19:49.969Z,102283.83
2022-10-19T00:20:20.410Z,102282.80
2022-10-19T00:20:50.859Z,102280.47
2022-10-19T00:21:21.280Z,102283.64
2022-10-19T00:21:51.708Z,102279.30
2022-10-19T00:22:22.125Z,102283.66
2022-10-19T00:22:52.549Z,102282.99
2022-10-19T00:23:22.995Z,102279.62
2022-10-19T00:23:53.402Z,102280.45
2022-10-19T00:24:23.818Z,102281.98
2022-10-19T00:24:54.249Z,102280.95
2022-10-19T00:25:24.668Z,102284.32
2022-10-19T00:25:55.106Z,102283.84
2022-10-19T00:26:25.526Z,102280.30
2022-10-19T00:26:55.955Z,102279.44
2022-10-19T00:27:26.384Z,102280.46
2022-10-19T00:27:56.821Z,102280.30
2022-10-19T00:28:27.318Z,102282.66
2022-10-19T00:28:57.775Z,102284.84
2022-10-19T00:29:28.267Z,102285.51
2022-10-19T00:29:58.697Z,102284.32
2022-10-19T00:30:29.123Z,102282.12
2022-10-19T00:30:59.558Z,102284.50
2022-10-19T00:31:29.980Z,102285.00
2022-10-19T00:32:00.402Z,102283.99
2022-10-19T00:32:31.040Z,102279.13
2022-10-19T00:33:01.544Z,102281.98
2022-10-19T00:33:31.964Z,102278.92
2022-10-19T00:34:02.392Z,102277.61
2022-10-19T00:34:32.815Z,102280.79
2022-10-19T00:35:03.248Z,102281.48
2022-10-19T00:35:33.677Z,102283.83
2022-10-19T00:36:04.113Z,102284.34
2022-10-19T00:36:34.549Z,102279.78
2022-10-19T00:37:04.960Z,102283.50
2022-10-19T00:37:35.386Z,102288.05
2022-10-19T00:38:05.807Z,102288.05
2022-10-19T00:38:36.252Z,102286.68
2022-10-19T00:39:06.656Z,102291.41
2022-10-19T00:39:37.086Z,102292.75
2022-10-19T00:40:07.513Z,102289.38
2022-10-19T00:40:37.931Z,102291.24
2022-10-19T00:41:08.382Z,102292.06
2022-10-19T00:41:38.802Z,102288.88
2022-10-19T00:42:09.226Z,102292.75
2022-10-19T00:42:39.648Z,102293.09
2022-10-19T00:43:10.071Z,102290.55
2022-10-19T00:43:40.492Z,102293.43
2022-10-19T00:44:10.919Z,102295.77
2022-10-19T00:44:41.345Z,102292.76
2022-10-19T00:45:11.788Z,102289.89
2022-10-19T00:45:42.250Z,102291.24
2022-10-19T00:46:12.690Z,102291.23
2022-10-19T00:46:43.118Z,102290.38
2022-10-19T00:47:13.538Z,102293.09
2022-10-19T00:47:43.960Z,102290.56
2022-10-19T00:48:14.386Z,102292.59
2022-10-19T00:48:44.844Z,102294.77
2022-10-19T00:49:15.235Z,102295.11
2022-10-19T00:49:45.655Z,102291.06
2022-10-19T00:50:16.073Z,102293.59
2022-10-19T00:50:46.492Z,102295.61
2022-10-19T00:51:16.946Z,102293.77
2022-10-19T00:51:47.366Z,102296.47
2022-10-19T00:52:17.790Z,102290.90
2022-10-19T00:52:48.222Z,102292.75
2022-10-19T00:53:18.635Z,102293.59
2022-10-19T00:53:49.075Z,102291.39
2022-10-19T00:54:19.475Z,102287.20
2022-10-19T00:54:49.901Z,102290.56
2022-10-19T00:55:20.347Z,102289.72
2022-10-19T00:55:50.767Z,102289.88
2022-10-19T00:56:21.206Z,102294.27
2022-10-19T00:56:51.627Z,102296.80
2022-10-19T00:57:22.050Z,102295.44
2022-10-19T00:57:52.471Z,102293.09
2022-10-19T00:58:22.889Z,102297.13
2022-10-19T00:58:53.312Z,102299.99
2022-10-19T00:59:23.754Z,102296.44
2022-10-19T00:59:54.167Z,102293.25
2022-10-19T01:00:24.606Z,102297.97
2022-10-19T01:00:55.055Z,102294.27
2022-10-19T01:01:25.496Z,102291.23
2022-10-19T01:01:55.880Z,102290.39
2022-10-19T01:02:26.307Z,102288.89
2022-10-19T01:02:56.735Z,102284.17
2022-10-19T01:03:27.180Z,102283.83
2022-10-19T01:03:57.597Z,102282.98
2022-10-19T01:04:28.023Z,102283.14
2022-10-19T01:04:58.445Z,102285.02
2022-10-19T01:05:28.879Z,102283.32
2022-10-19T01:05:59.310Z,102282.33
2022-10-19T01:06:29.749Z,102286.02
2022-10-19T01:07:00.166Z,102285.52
2022-10-19T01:07:30.737Z,102282.48
2022-10-19T01:08:01.150Z,102283.66
2022-10-19T01:08:31.589Z,102282.30
2022-10-19T01:09:02.032Z,102283.33
2022-10-19T01:09:32.432Z,102282.33
2022-10-19T01:10:02.859Z,102279.30
2022-10-19T01:10:33.285Z,102276.60
2022-10-19T01:11:03.705Z,102277.25
2022-10-19T01:11:34.135Z,102279.80
2022-10-19T01:12:04.554Z,102275.93
2022-10-19T01:12:34.984Z,102281.12
2022-10-19T01:13:05.406Z,102274.89
2022-10-19T01:13:35.828Z,102276.25
2022-10-19T01:14:06.247Z,102276.09
2022-10-19T01:14:36.688Z,102276.77
2022-10-19T01:15:07.107Z,102276.77
2022-10-19T01:15:37.542Z,102274.75
2022-10-19T01:16:07.972Z,102275.09
2022-10-19T01:16:38.413Z,102276.11
2022-10-19T01:17:08.844Z,102277.11
2022-10-19T01:17:39.271Z,102277.94
2022-10-19T01:18:09.691Z,102276.92
2022-10-19T01:18:40.129Z,102279.80
2022-10-19T01:19:10.544Z,102277.61
2022-10-19T01:19:40.977Z,102272.91
2022-10-19T01:20:11.399Z,102272.91
2022-10-19T01:20:41.821Z,102268.02
2022-10-19T01:21:12.239Z,102270.35
2022-10-19T01:21:42.685Z,102270.53
2022-10-19T01:22:13.104Z,102268.17
2022-10-19T01:22:43.542Z,102265.48
2022-10-19T01:23:13.971Z,102264.64
2022-10-19T01:23:44.401Z,102266.50
2022-10-19T01:24:14.889Z,102265.16
2022-10-19T01:24:45.403Z,102265.48
2022-10-19T01:25:15.802Z,102266.66
2022-10-19T01:25:46.226Z,102267.33
2022-10-19T01:26:16.644Z,102264.81
2022-10-19T01:26:47.073Z,102263.97
2022-10-19T01:27:17.491Z,102263.99
2022-10-19T01:27:47.916Z,102260.60
2022-10-19T01:28:18.346Z,102261.80
2022-10-19T01:28:48.851Z,102262.96
2022-10-19T01:29:19.220Z,102263.80
2022-10-19T01:29:49.657Z,102267.51
2022-10-19T01:30:20.066Z,102265.48
2022-10-19T01:30:50.487Z,102268.34
2022-10-19T01:31:20.906Z,102271.55
2022-10-19T01:31:51.358Z,102267.17
2022-10-19T01:32:21.778Z,102271.38
2022-10-19T01:32:52.212Z,102268.02
2022-10-19T01:33:22.647Z,102271.05
2022-10-19T01:33:53.119Z,102272.06
2022-10-19T01:34:23.505Z,102268.52
2022-10-19T01:34:53.927Z,102271.73
2022-10-19T01:35:24.348Z,102267.69
2022-10-19T01:35:54.771Z,102269.70
2022-10-19T01:36:25.192Z,102272.57
2022-10-19T01:36:55.631Z,102267.34
2022-10-19T01:37:26.056Z,102269.36
2022-10-19T01:37:56.482Z,102268.00
2022-10-19T01:38:26.900Z,102265.66
2022-10-19T01:38:57.327Z,102268.84
2022-10-19T01:39:27.803Z,102264.31
2022-10-19T01:39:58.225Z,102270.22
2022-10-19T01:40:28.660Z,102269.86
2022-10-19T01:40:59.085Z,102263.98
2022-10-19T01:41:29.507Z,102265.31
2022-10-19T01:41:59.944Z,102265.67
2022-10-19T01:42:30.378Z,102266.49
2022-10-19T01:43:00.807Z,102265.84
2022-10-19T01:43:31.223Z,102263.82
2022-10-19T01:44:01.647Z,102267.86
2022-10-19T01:44:32.068Z,102265.15
2022-10-19T01:45:02.508Z,102264.81
2022-10-19T01:45:32.920Z,102268.19
2022-10-19T01:46:03.338Z,102265.83
2022-10-19T01:46:33.766Z,102266.50
2022-10-19T01:47:04.219Z,102263.64
2022-10-19T01:47:34.911Z,102265.16
2022-10-19T01:48:05.478Z,102265.31
2022-10-19T01:48:35.904Z,102263.13
2022-10-19T01:49:06.383Z,102268.35
2022-10-19T01:49:36.827Z,102268.35
2022-10-19T01:50:07.250Z,102266.17
2022-10-19T01:50:37.668Z,102263.64
2022-10-19T01:51:08.090Z,102265.83
2022-10-19T01:51:38.516Z,102263.30
2022-10-19T01:52:08.952Z,102264.98
2022-10-19T01:52:39.412Z,102262.98
2022-10-19T01:53:09.830Z,102264.81
2022-10-19T01:53:40.285Z,102268.02
2022-10-19T01:54:10.707Z,102265.16
2022-10-19T01:54:41.150Z,102262.80
2022-10-19T01:55:11.553Z,102264.14
2022-10-19T01:55:41.971Z,102263.15
2022-10-19T01:56:12.401Z,102262.80
2022-10-19T01:56:42.823Z,102259.94
2022-10-19T01:57:13.280Z,102262.47
2022-10-19T01:57:43.717Z,102262.97
2022-10-19T01:58:14.142Z,102261.62
2022-10-19T01:58:44.565Z,102259.78
2022-10-19T01:59:14.995Z,102262.47
2022-10-19T01:59:45.415Z,102258.92
2022-10-19T02:00:15.833Z,102256.59
2022-10-19T02:00:46.390Z,102256.25
2022-10-19T02:01:16.825Z,102257.59
2022-10-19T02:01:47.240Z,102256.39
2022-10-19T02:02:17.670Z,102251.01
2022-10-19T02:02:48.100Z,102256.92
2022-10-19T02:03:18.523Z,102251.69
2022-10-19T02:03:48.943Z,102256.25
2022-10-19T02:04:19.422Z,102253.22
2022-10-19T02:04:49.796Z,102250.69
2022-10-19T02:05:20.229Z,102250.17
2022-10-19T02:05:50.671Z,102249.68
2022-10-19T02:06:21.095Z,102253.73
2022-10-19T02:06:51.519Z,102247.66
2022-10-19T02:07:21.954Z,102250.67
2022-10-19T02:07:52.373Z,102251.20
2022-10-19T02:08:22.794Z,102249.35
2022-10-19T02:08:53.225Z,102251.88
2022-10-19T02:09:23.658Z,102252.53
2022-10-19T02:09:54.109Z,102253.39
2022-10-19T02:10:24.545Z,102256.39
2022-10-19T02:10:54.978Z,102257.42
2022-10-19T02:11:25.398Z,102250.85
2022-10-19T02:11:57.066Z,102251.03
2022-10-19T02:12:27.768Z,102254.06
2022-10-19T02:12:58.333Z,102250.70
2022-10-19T02:13:28.828Z,102250.36
2022-10-19T02:13:59.258Z,102246.13
2022-10-19T02:14:29.677Z,102249.83
2022-10-19T02:15:00.106Z,102252.38
2022-10-19T02:15:30.521Z,102257.23
2022-10-19T02:16:00.949Z,102247.50
2022-10-19T02:16:31.377Z,102252.03
2022-10-19T02:17:01.799Z,102253.56
2022-10-19T02:17:32.249Z,102252.72
2022-10-19T02:18:02.686Z,102253.56
2022-10-19T02:18:33.095Z,102252.87
2022-10-19T02:19:03.512Z,102253.55
2022-10-19T02:19:33.946Z,102254.05
2022-10-19T02:20:04.360Z,102255.41
2022-10-19T02:20:34.784Z,102251.86
2022-10-19T02:21:05.205Z,102252.20
2022-10-19T02:21:35.630Z,102250.02
2022-10-19T02:22:06.052Z,102249.52
2022-10-19T02:22:36.764Z,102255.42
2022-10-19T02:23:07.292Z,102259.28
2022-10-19T02:23:37.719Z,102257.42
2022-10-19T02:24:08.145Z,102257.08
2022-10-19T02:24:38.567Z,102257.42
2022-10-19T02:25:09.065Z,102258.28
2022-10-19T02:25:39.417Z,102257.25
2022-10-19T02:26:09.850Z,102259.11
2022-10-19T02:26:40.282Z,102256.73
2022-10-19T02:27:10.777Z,102258.62
2022-10-19T02:27:41.181Z,102260.62
2022-10-19T02:28:11.776Z,102258.78
2022-10-19T02:28:42.196Z,102259.79
2022-10-19T02:29:12.628Z,102261.15
2022-10-19T02:29:43.049Z,102259.30
2022-10-19T02:30:13.475Z,102257.78
2022-10-19T02:30:43.940Z,102258.96
2022-10-19T02:31:14.363Z,102258.80
2022-10-19T02:31:44.801Z,102257.79
2022-10-19T02:32:15.234Z,102258.80
2022-10-19T02:32:45.670Z,102260.48
2022-10-19T02:33:16.098Z,102259.11
2022-10-19T02:33:46.529Z,102258.61
2022-10-19T02:34:16.969Z,102256.58
2022-10-19T02:34:47.387Z,102258.27
2022-10-19T02:35:17.859Z,102259.11
2022-10-19T02:35:48.256Z,102256.95
2022-10-19T02:36:18.678Z,102260.31
2022-10-19T02:36:49.113Z,102258.27
2022-10-19T02:37:22.074Z,102258.10
2022-10-19T02:37:54.879Z,102259.78
2022-10-19T02:38:25.303Z,102258.27
2022-10-19T02:38:55.729Z,102256.10
2022-10-19T02:39:26.188Z,102258.59
2022-10-19T02:39:56.608Z,102259.27
2022-10-19T02:40:27.054Z,102258.78
2022-10-19T02:40:57.454Z,102260.62
2022-10-19T02:41:27.874Z,102256.41
2022-10-19T02:41:58.294Z,102259.61
2022-10-19T02:42:28.727Z,102255.58
2022-10-19T02:42:59.158Z,102257.09
2022-10-19T02:43:29.580Z,102254.56
2022-10-19T02:44:00.007Z,102254.56
2022-10-19T02:44:30.436Z,102251.36
2022-10-19T02:45:00.858Z,102249.34
2022-10-19T02:45:31.318Z,102251.53
2022-10-19T02:46:01.705Z,102251.20
2022-10-19T02:46:32.176Z,102246.51
2022-10-19T02:47:02.569Z,102247.52
2022-10-19T02:47:33.281Z,102246.66
2022-10-19T02:48:03.860Z,102246.00
2022-10-19T02:48:34.278Z,102248.19
2022-10-19T02:49:04.712Z,102248.36
2022-10-19T02:49:35.135Z,102253.72
2022-10-19T02:50:05.562Z,102250.86
2022-10-19T02:50:35.976Z,102251.54
2022-10-19T02:51:06.398Z,102253.06
2022-10-19T02:51:36.820Z,102250.70
2022-10-19T02:52:07.248Z,102253.73
2022-10-19T02:52:37.671Z,102253.07
2022-10-19T02:53:08.105Z,102251.20
2022-10-19T02:53:38.534Z,102249.38
2022-10-19T02:54:08.953Z,102251.87
2022-10-19T02:54:39.377Z,102251.89
2022-10-19T02:55:09.798Z,102248.69
2022-10-19T02:56:11.594Z,102249.86
2022-10-19T02:56:42.012Z,102250.20
2022-10-19T02:57:12.457Z,102253.07
2022-10-19T02:57:42.875Z,102251.05
2022-10-19T02:58:13.314Z,102255.76
2022-10-19T02:58:43.746Z,102252.90
2022-10-19T02:59:14.173Z,102256.77
2022-10-19T02:59:44.581Z,102255.73
2022-10-19T03:00:15.007Z,102257.09
2022-10-19T03:00:45.517Z,102254.22
2022-10-19T03:01:15.957Z,102256.09
2022-10-19T03:01:46.335Z,102254.41
2022-10-19T03:02:16.755Z,102255.58
2022-10-19T03:02:47.179Z,102251.53
2022-10-19T03:03:17.656Z,102255.75
2022-10-19T03:03:48.081Z,102257.10
2022-10-19T03:04:18.503Z,102254.41
2022-10-19T03:04:48.974Z,102256.58
2022-10-19T03:05:19.372Z,102254.91
2022-10-19T03:05:49.792Z,102257.95
2022-10-19T03:06:20.215Z,102256.59
2022-10-19T03:06:50.628Z,102256.95
2022-10-19T03:07:21.123Z,102260.30
2022-10-19T03:07:51.545Z,102255.23
2022-10-19T03:08:21.987Z,102257.92
2022-10-19T03:08:52.406Z,102256.77
2022-10-19T03:09:22.830Z,102257.79
2022-10-19T03:09:53.252Z,102259.80
2022-10-19T03:10:23.676Z,102258.62
2022-10-19T03:10:54.126Z,102254.06
2022-10-19T03:11:24.526Z,102258.62
2022-10-19T03:11:54.956Z,102255.92
2022-10-19T03:12:25.378Z,102254.58
2022-10-19T03:12:55.802Z,102256.08
2022-10-19T03:13:26.248Z,102259.97
2022-10-19T03:13:56.673Z,102259.30
2022-10-19T03:14:27.090Z,102261.13
2022-10-19T03:14:57.518Z,102256.09
2022-10-19T03:15:27.944Z,102259.64
2022-10-19T03:15:58.360Z,102261.64
2022-10-19T03:16:28.797Z,102260.64
2022-10-19T03:16:59.218Z,102264.33
2022-10-19T03:17:29.637Z,102263.34
2022-10-19T03:18:00.056Z,102262.64
2022-10-19T03:18:30.496Z,102264.17
2022-10-19T03:19:00.921Z,102262.81
2022-10-19T03:19:31.344Z,102261.63
2022-10-19T03:20:01.764Z,102262.48
2022-10-19T03:20:32.191Z,102262.84
2022-10-19T03:21:02.608Z,102264.00
2022-10-19T03:21:33.050Z,102266.20
2022-10-19T03:22:03.474Z,102268.89
2022-10-19T03:22:33.892Z,102262.48
2022-10-19T03:23:04.323Z,102267.55
2022-10-19T03:23:34.766Z,102270.41
2022-10-19T03:24:05.186Z,102272.09
2022-10-19T03:24:35.609Z,102269.56
2022-10-19T03:25:06.028Z,102268.90
2022-10-19T03:25:36.449Z,102266.03
2022-10-19T03:26:09.999Z,102271.59
2022-10-19T03:26:42.193Z,102269.38
2022-10-19T03:27:12.612Z,102270.91
2022-10-19T03:27:43.036Z,102273.92
2022-10-19T03:28:13.458Z,102272.92
2022-10-19T03:28:43.944Z,102276.28
2022-10-19T03:29:14.365Z,102272.92
2022-10-19T03:29:44.785Z,102273.79
2022-10-19T03:30:15.212Z,102271.95
2022-10-19T03:30:45.640Z,102268.78
2022-10-19T03:31:16.063Z,102270.48
2022-10-19T03:31:46.488Z,102272.31
2022-10-19T03:32:16.924Z,102275.70
2022-10-19T03:32:47.325Z,102276.36
2022-10-19T03:33:17.804Z,102278.53
2022-10-19T03:33:48.212Z,102276.69
2022-10-19T03:34:18.642Z,102268.92
2022-10-19T03:34:49.064Z,102272.95
2022-10-19T03:35:19.491Z,102272.63
2022-10-19T03:35:49.918Z,102274.98
2022-10-19T03:36:20.337Z,102274.14
2022-10-19T03:36:50.757Z,102274.98
2022-10-19T03:37:21.191Z,102280.17
2022-10-19T03:37:51.635Z,102275.66
2022-10-19T03:38:22.066Z,102273.97
2022-10-19T03:38:52.505Z,102272.59
2022-10-19T03:39:22.929Z,102275.64
2022-10-19T03:39:53.353Z,102277.99
2022-10-19T03:40:23.771Z,102272.28
2022-10-19T03:40:54.212Z,102275.45
2022-10-19T03:41:24.655Z,102278.66
2022-10-19T03:41:55.076Z,102274.48
2022-10-19T03:42:25.496Z,102275.47
2022-10-19T03:42:55.916Z,102273.97
2022-10-19T03:43:26.342Z,102277.66
2022-10-19T03:43:56.827Z,102275.62
2022-10-19T03:44:27.265Z,102275.30
2022-10-19T03:44:57.683Z,102278.17
2022-10-19T03:45:28.109Z,102280.02
2022-10-19T03:45:58.560Z,102278.67
2022-10-19T03:46:28.980Z,102281.34
2022-10-19T03:46:59.415Z,102283.70
2022-10-19T03:47:29.848Z,102279.67
2022-10-19T03:48:00.266Z,102286.74
2022-10-19T03:48:30.686Z,102286.23
2022-10-19T03:49:01.137Z,102288.06
2022-10-19T03:49:32.351Z,102285.54
2022-10-19T03:50:03.327Z,102286.21
2022-10-19T03:50:33.752Z,102286.06
2022-10-19T03:51:04.169Z,102284.36
2022-10-19T03:51:34.593Z,102284.03
2022-10-19T03:52:05.009Z,102283.88
2022-10-19T03:52:35.459Z,102284.72
2022-10-19T03:53:05.886Z,102286.23
2022-10-19T03:53:36.321Z,102284.55
2022-10-19T03:54:06.747Z,102281.52
2022-10-19T03:54:37.174Z,102285.73
2022-10-19T03:55:07.595Z,102283.53
2022-10-19T03:55:38.036Z,102280.18
2022-10-19T03:56:08.472Z,102281.36
2022-10-19T03:56:38.913Z,102281.02
2022-10-19T03:57:09.325Z,102283.21
2022-10-19T03:57:39.748Z,102278.84
2022-10-19T03:58:10.210Z,102282.86
2022-10-19T03:58:40.609Z,102282.38
2022-10-19T03:59:11.132Z,102280.02
2022-10-19T03:59:41.493Z,102282.88
2022-10-19T04:00:11.917Z,102284.38
2022-10-19T04:00:42.404Z,102286.58
2022-10-19T04:01:12.856Z,102286.58
2022-10-19T04:01:43.238Z,102288.09
2022-10-19T04:02:13.663Z,102288.59
2022-10-19T04:02:44.090Z,102288.09
2022-10-19T04:03:14.510Z,102288.60
2022-10-19T04:03:44.947Z,102290.27
2022-10-19T04:04:15.370Z,102287.09
2022-10-19T04:04:45.812Z,102287.59
2022-10-19T04:05:16.249Z,102290.11
2022-10-19T04:05:46.666Z,102290.09
2022-10-19T04:06:19.760Z,102287.09
2022-10-19T04:06:52.379Z,102285.41
2022-10-19T04:07:22.831Z,102287.25
2022-10-19T04:07:53.261Z,102289.09
2022-10-19T04:08:23.688Z,102289.28
2022-10-19T04:08:54.106Z,102289.77
2022-10-19T04:09:24.540Z,102292.14
2022-10-19T04:09:54.959Z,102293.48
2022-10-19T04:10:25.379Z,102291.78
2022-10-19T04:10:55.799Z,102295.84
2022-10-19T04:11:26.223Z,102293.15
2022-10-19T04:11:56.667Z,102300.22
2022-10-19T04:12:27.086Z,102298.53
2022-10-19T04:12:57.503Z,102298.67
2022-10-19T04:13:27.926Z,102293.47
2022-10-19T04:13:58.433Z,102295.99
2022-10-19T04:14:33.090Z,102292.98
2022-10-19T04:15:04.197Z,102293.97
2022-10-19T04:15:34.621Z,102291.95
2022-10-19T04:16:05.044Z,102295.00
2022-10-19T04:16:35.463Z,102298.36
2022-10-19T04:17:05.891Z,102309.15
2022-10-19T04:17:36.721Z,102305.75
2022-10-19T04:18:07.240Z,102311.17
2022-10-19T04:18:37.677Z,102306.11
2022-10-19T04:19:08.106Z,102310.31
2022-10-19T04:19:38.548Z,102311.83
2022-10-19T04:20:08.970Z,102311.49
2022-10-19T04:20:39.394Z,102305.77
2022-10-19T04:21:09.812Z,102304.58
2022-10-19T04:21:40.252Z,102304.42
2022-10-19T04:22:10.663Z,102306.45
2022-10-19T04:22:41.085Z,102302.56
2022-10-19T04:23:11.536Z,102303.75
2022-10-19T04:23:41.933Z,102306.27
2022-10-19T04:24:12.351Z,102305.95
2022-10-19T04:24:42.794Z,102310.97
2022-10-19T04:25:13.216Z,102305.77
2022-10-19T04:25:43.637Z,102304.59
2022-10-19T04:26:14.054Z,102306.94
2022-10-19T04:26:44.479Z,102304.25
2022-10-19T04:27:14.928Z,102302.57
2022-10-19T04:27:45.336Z,102304.94
2022-10-19T04:28:15.757Z,102305.77
2022-10-19T04:28:46.211Z,102305.27
2022-10-19T04:29:16.598Z,102307.11
2022-10-19T04:29:47.038Z,102306.29
2022-10-19T04:30:17.480Z,102307.46
2022-10-19T04:30:47.904Z,102306.43
2022-10-19T04:31:18.324Z,102302.75
2022-10-19T04:31:48.748Z,102304.09
2022-10-19T04:32:19.172Z,102306.45
2022-10-19T04:32:49.597Z,102305.25
2022-10-19T04:33:20.014Z,102311.16
2022-10-19T04:33:50.435Z,102314.19
2022-10-19T04:34:20.857Z,102313.68
2022-10-19T04:34:51.305Z,102309.64
2022-10-19T04:35:21.733Z,102309.46
2022-10-19T04:35:52.165Z,102308.48
2022-10-19T04:36:22.582Z,102312.34
2022-10-19T04:36:53.005Z,102309.46
2022-10-19T04:37:23.429Z,102311.34
2022-10-19T04:37:53.852Z,102306.94
2022-10-19T04:38:24.298Z,102309.62
2022-10-19T04:38:54.708Z,102309.30
2022-10-19T04:39:25.127Z,102310.16
2022-10-19T04:39:55.561Z,102310.83
2022-10-19T04:40:25.986Z,102309.48
2022-10-19T04:40:56.418Z,102309.99
2022-10-19T04:41:26.842Z,102307.61
2022-10-19T04:41:57.279Z,102311.16
2022-10-19T04:42:27.746Z,102312.34
2022-10-19T04:42:58.144Z,102313.34
2022-10-19T04:43:28.567Z,102312.86
2022-10-19T04:43:58.991Z,102316.89
2022-10-19T04:44:29.419Z,102314.37
2022-10-19T04:44:59.855Z,102320.08
2022-10-19T04:45:30.285Z,102317.20
2022-10-19T04:46:00.705Z,102318.07
2022-10-19T04:46:31.162Z,102318.72
2022-10-19T04:47:01.587Z,102320.06
2022-10-19T04:47:32.386Z,102322.25
2022-10-19T04:48:03.070Z,102323.45
2022-10-19T04:48:33.489Z,102321.08
2022-10-19T04:49:03.926Z,102319.58
2022-10-19T04:49:34.346Z,102322.95
2022-10-19T04:50:04.779Z,102324.63
2022-10-19T04:50:35.202Z,102324.12
2022-10-19T04:51:05.642Z,102324.95
2022-10-19T04:51:36.065Z,102327.16
2022-10-19T04:52:06.486Z,102325.80
2022-10-19T04:52:36.911Z,102329.16
2022-10-19T04:53:07.365Z,102329.50
2022-10-19T04:53:37.806Z,102330.84
2022-10-19T04:54:08.225Z,102326.31
2022-10-19T04:54:38.647Z,102328.99
2022-10-19T04:55:09.086Z,102328.50
2022-10-19T04:55:39.521Z,102329.19
2022-10-19T04:56:09.953Z,102329.50
2022-10-19T04:56:40.381Z,102326.48
2022-10-19T04:57:10.804Z,102324.79
2022-10-19T04:57:41.247Z,102323.61
2022-10-19T04:58:11.652Z,102324.96
2022-10-19T04:58:42.072Z,102328.52
2022-10-19T04:59:12.494Z,102324.81
2022-10-19T04:59:42.912Z,102323.78
2022-10-19T05:00:13.348Z,102326.83
2022-10-19T05:00:43.792Z,102322.09
2022-10-19T05:01:14.268Z,102326.47
2022-10-19T05:01:47.330Z,102326.48
2022-10-19T05:02:17.801Z,102327.00
2022-10-19T05:02:48.223Z,102328.50
2022-10-19T05:03:18.647Z,102322.09
2022-10-19T05:03:49.095Z,102323.28
2022-10-19T05:04:19.549Z,102326.48
2022-10-19T05:04:49.990Z,102327.16
2022-10-19T05:05:20.417Z,102323.61
2022-10-19T05:05:50.843Z,102330.53
2022-10-19T05:06:21.261Z,102323.11
2022-10-19T05:06:51.693Z,102332.20
2022-10-19T05:07:22.120Z,102327.66
2022-10-19T05:07:52.551Z,102331.71
2022-10-19T05:08:22.982Z,102333.72
2022-10-19T05:08:53.410Z,102334.73
2022-10-19T05:09:23.833Z,102336.07
2022-10-19T05:09:54.256Z,102335.06
2022-10-19T05:10:24.717Z,102337.92
2022-10-19T05:10:55.135Z,102335.40
2022-10-19T05:11:25.564Z,102332.88
2022-10-19T05:11:55.996Z,102334.39
2022-10-19T05:12:26.417Z,102332.03
2022-10-19T05:12:56.856Z,102331.55
2022-10-19T05:13:27.258Z,102330.34
2022-10-19T05:13:57.684Z,102327.32
2022-10-19T05:14:58.464Z,102337.75
2022-10-19T05:15:28.893Z,102330.17
2022-10-19T05:15:59.317Z,102336.25
2022-10-19T05:16:29.737Z,102329.67
2022-10-19T05:17:00.164Z,102332.70
2022-10-19T05:17:30.708Z,102331.53
2022-10-19T05:18:01.101Z,102332.03
2022-10-19T05:18:31.529Z,102333.72
2022-10-19T05:19:01.951Z,102338.27
2022-10-19T05:19:32.376Z,102333.91
2022-10-19T05:20:02.799Z,102335.72
2022-10-19T05:20:33.253Z,102336.75
2022-10-19T05:21:03.683Z,102335.41
2022-10-19T05:21:34.107Z,102339.44
2022-10-19T05:22:04.538Z,102342.80
2022-10-19T05:22:34.960Z,102342.80
2022-10-19T05:23:07.395Z,102343.48
2022-10-19T05:23:37.855Z,102345.33
2022-10-19T05:24:08.267Z,102342.98
2022-10-19T05:24:38.684Z,102346.50
2022-10-19T05:25:09.117Z,102348.86
2022-10-19T05:25:39.565Z,102347.70
2022-10-19T05:26:09.995Z,102348.71
2022-10-19T05:26:40.420Z,102349.03
2022-10-19T05:27:10.838Z,102350.89
2022-10-19T05:27:41.260Z,102347.53
2022-10-19T05:28:11.713Z,102346.33
2022-10-19T05:28:42.173Z,102344.66
2022-10-19T05:29:12.692Z,102347.02
2022-10-19T05:29:43.063Z,102346.66
2022-10-19T05:30:13.495Z,102344.48
2022-10-19T05:30:48.810Z,102344.81
2022-10-19T05:31:19.255Z,102345.83
2022-10-19T05:31:49.691Z,102345.00
2022-10-19T05:32:20.121Z,102342.83
2022-10-19T05:32:50.540Z,102344.83
2022-10-19T05:33:20.976Z,102344.49
2022-10-19T05:33:51.486Z,102343.31
2022-10-19T05:34:21.893Z,102338.61
2022-10-19T05:34:52.327Z,102340.27
2022-10-19T05:35:22.915Z,102341.12
2022-10-19T05:35:53.343Z,102341.45
2022-10-19T05:36:23.788Z,102342.98
2022-10-19T05:36:54.221Z,102345.85
2022-10-19T05:37:24.634Z,102343.66
2022-10-19T05:37:55.053Z,102343.50
2022-10-19T05:38:25.475Z,102345.00
2022-10-19T05:38:55.946Z,102347.37
2022-10-19T05:39:26.373Z,102345.52
2022-10-19T05:39:56.792Z,102345.67
2022-10-19T05:40:27.408Z,102342.98
2022-10-19T05:40:57.820Z,102342.30
2022-10-19T05:41:28.241Z,102346.68
2022-10-19T05:41:58.666Z,102345.16
2022-10-19T05:42:29.090Z,102343.16
2022-10-19T05:42:59.512Z,102347.17
2022-10-19T05:43:29.957Z,102349.36
2022-10-19T05:44:00.370Z,102348.38
2022-10-19T05:44:30.838Z,102345.68
2022-10-19T05:45:01.257Z,102349.39
2022-10-19T05:45:31.680Z,102344.34
2022-10-19T05:46:02.124Z,102348.18
2022-10-19T05:46:32.549Z,102346.83
2022-10-19T05:47:02.970Z,102348.71
2022-10-19T05:47:33.709Z,102349.38
2022-10-19T05:48:04.256Z,102348.18
2022-10-19T05:48:34.694Z,102347.35
2022-10-19T05:49:05.116Z,102345.00